Time;durP1;ratioP1;P1;durP2;ratioP2;P2;SDS_P1;SDS_P2;PMS_P1;PMS_P2;Temp;Humidity;BMP_temperature;BMP_pressure;BME280_temperature;BME280_humidity;BME280_pressure;Samples;Min_cycle;Max_cycle;Signal;HPM_P1;HPM_P2
2022/01/19 00:01:46;;;;;;;11.30;9.90;;;1.90;99.90;;;2.52;85.94;99435.84;5183779;28;20235;-66
2022/01/19 00:04:19;;;;;;;10.67;9.70;;;1.70;99.90;;;2.52;85.58;99435.84;5181569;28;20261;-64
2022/01/19 00:06:52;;;;;;;10.13;9.27;;;1.80;99.90;;;2.55;86.00;99426.09;5179095;28;20226;-65
2022/01/19 00:09:26;;;;;;;9.70;8.80;;;1.70;99.90;;;2.43;86.46;99420.53;5184329;28;20225;-66
2022/01/19 00:12:00;;;;;;;9.40;8.60;;;1.70;99.90;;;2.38;86.04;99398.97;5184234;28;20227;-66
2022/01/19 00:14:33;;;;;;;10.03;9.23;;;1.60;99.90;;;2.32;87.25;99390.69;5182434;28;20231;-66
2022/01/19 00:17:06;;;;;;;9.37;8.47;;;1.60;99.90;;;2.28;87.31;99386.03;5182622;28;20598;-65
2022/01/19 00:19:39;;;;;;;10.93;10.03;;;1.50;99.90;;;2.26;87.93;99380.78;5182725;28;20724;-66
2022/01/19 00:22:12;;;;;;;10.27;9.23;;;1.50;99.90;;;2.22;87.51;99381.19;5183028;28;20220;-65
2022/01/19 00:24:45;;;;;;;13.00;10.37;;;1.50;99.90;;;2.13;88.45;99383.56;5182446;28;20603;-67
2022/01/19 00:27:20;;;;;;;10.73;9.63;;;1.40;99.90;;;2.16;88.80;99390.56;5181923;28;20713;-64
2022/01/19 00:29:53;;;;;;;9.97;9.10;;;1.40;99.90;;;2.11;88.47;99390.03;5183018;28;20235;-64
2022/01/19 00:32:26;;;;;;;10.03;9.13;;;1.30;99.90;;;2.06;88.13;99393.69;5183191;28;20225;-65
2022/01/19 00:34:59;;;;;;;10.77;9.70;;;1.30;99.90;;;2.05;89.40;99404.47;5182833;28;20233;-65
2022/01/19 00:37:33;;;;;;;10.87;9.83;;;1.30;99.90;;;1.98;89.21;99409.56;5182410;28;20602;-66
2022/01/19 00:40:10;;;;;;;11.30;10.20;;;1.20;99.90;;;1.89;88.81;99411.00;5181393;28;20229;-65
2022/01/19 00:42:46;;;;;;;11.50;10.40;;;1.10;99.90;;;1.88;89.66;99407.56;5181751;28;20230;-66
2022/01/19 00:45:19;;;;;;;12.20;11.10;;;1.10;99.90;;;1.88;88.88;99415.13;5182620;28;20255;-65
2022/01/19 00:47:52;;;;;;;11.37;10.27;;;1.10;99.90;;;1.87;89.79;99412.47;5182806;28;20229;-66
2022/01/19 00:50:29;;;;;;;11.43;10.33;;;1.00;99.90;;;1.82;88.93;99399.31;5182928;28;20217;-66
2022/01/19 00:53:02;;;;;;;11.27;9.77;;;1.00;99.90;;;1.78;88.85;99398.06;5182629;28;20235;-64
2022/01/19 00:55:36;;;;;;;11.60;10.60;;;1.00;99.90;;;1.75;89.83;99397.72;5183258;28;20221;-66
2022/01/19 00:58:10;;;;;;;11.07;10.07;;;1.00;99.90;;;1.69;90.60;99402.03;5182515;28;20222;-64
2022/01/19 01:00:43;;;;;;;12.03;10.83;;;0.90;99.90;;;1.70;90.58;99401.31;5182137;28;20222;-63
2022/01/19 01:03:17;;;;;;;12.30;11.10;;;0.90;99.90;;;1.63;90.19;99410.50;5184285;28;20276;-65
2022/01/19 01:05:50;;;;;;;11.53;10.53;;;0.90;99.90;;;1.62;89.92;99412.13;5185936;28;20218;-65
2022/01/19 01:08:23;;;;;;;12.07;10.63;;;0.80;99.90;;;1.57;89.42;99410.69;5184936;28;20228;-66
2022/01/19 01:10:56;;;;;;;11.17;10.07;;;0.80;99.90;;;1.51;89.98;99412.47;5186061;28;20226;-64
2022/01/19 01:15:25;;;;;;;11.50;10.30;;;0.70;99.90;;;1.50;89.85;99413.22;5186791;28;20328;-65
2022/01/19 01:16:32;;;;;;;11.87;10.73;;;0.70;99.90;;;1.47;89.86;99408.72;5185777;28;20211;-65
2022/01/19 01:19:08;;;;;;;12.00;10.83;;;0.60;99.90;;;1.38;90.38;99415.22;5185955;28;20230;-66
2022/01/19 01:21:41;;;;;;;11.97;10.47;;;0.60;99.90;;;1.34;90.77;99413.94;5185468;28;20235;-65
2022/01/19 01:24:14;;;;;;;13.37;11.20;;;0.60;99.90;;;1.27;90.52;99393.78;5186138;28;20224;-66
2022/01/19 01:26:47;;;;;;;12.83;11.47;;;0.60;99.90;;;1.25;90.76;99380.09;5185600;28;20697;-65
2022/01/19 01:29:22;;;;;;;13.43;11.43;;;0.50;99.90;;;1.29;90.77;99384.81;5186031;28;20591;-65
2022/01/19 01:31:55;;;;;;;13.63;12.10;;;0.50;99.90;;;1.20;91.58;99376.16;5185279;28;20225;-65
2022/01/19 01:34:28;;;;;;;13.57;11.90;;;0.50;99.90;;;1.19;91.81;99384.44;5185286;28;20241;-65
2022/01/19 01:37:01;;;;;;;13.40;11.97;;;0.40;99.90;;;1.20;91.30;99393.78;5186713;28;20226;-66
2022/01/19 01:39:34;;;;;;;13.10;11.77;;;0.40;99.90;;;1.16;91.04;99411.75;5185023;28;20228;-65
2022/01/19 01:42:12;;;;;;;11.93;10.93;;;0.30;99.90;;;1.10;91.72;99422.00;5187444;28;20224;-66
2022/01/19 01:44:50;;;;;;;12.63;11.33;;;0.30;99.90;;;1.13;91.11;99427.41;5185129;28;20222;-65
2022/01/19 01:47:25;;;;;;;13.13;11.80;;;0.30;99.90;;;1.15;91.00;99436.78;5183636;28;20298;-66
2022/01/19 01:55:45;;;;;;;13.07;11.40;;;0.20;99.90;;;0.88;92.14;99416.03;5185518;28;20229;-65
2022/01/19 01:58:18;;;;;;;11.60;10.43;;;0.20;99.90;;;0.85;91.54;99403.09;5186006;28;20223;-65
2022/01/19 02:00:54;;;;;;;12.03;10.40;;;0.10;99.90;;;0.82;91.77;99404.34;5185716;28;20229;-64
2022/01/19 02:03:28;;;;;;;12.87;11.43;;;0.10;99.90;;;0.86;91.71;99393.94;5181788;28;20625;-66
2022/01/19 02:09:03;;;;;;;12.93;11.73;;;0.10;99.90;;;0.80;92.50;99386.56;5175322;28;20235;-65
2022/01/19 02:23:18;;;;;;;12.43;11.27;;;0.10;99.90;;;0.66;92.05;99366.41;5183761;28;20229;-64
2022/01/19 02:25:53;;;;;;;13.37;12.00;;;0.00;99.90;;;0.65;92.34;99360.44;5177130;28;20227;-64
2022/01/19 02:31:50;;;;;;;12.50;11.30;;;0.00;99.90;;;0.66;92.27;99356.34;5185472;28;20220;-64
2022/01/19 02:40:13;;;;;;;12.23;10.90;;;-0.10;99.90;;;0.58;92.15;99346.97;5158215;28;20229;-66
2022/01/19 02:42:56;;;;;;;13.27;11.97;;;-0.10;99.90;;;0.55;92.43;99344.09;5184344;28;20232;-65
2022/01/19 02:51:27;;;;;;;15.40;11.67;;;-0.20;99.90;;;0.48;92.42;99328.97;5140115;28;20729;-66
2022/01/19 02:54:01;;;;;;;14.03;11.03;;;-0.20;99.90;;;0.31;91.88;99325.34;5141423;28;20222;-66
2022/01/19 02:56:37;;;;;;;12.37;11.33;;;-0.30;99.90;;;0.35;92.54;99322.50;5164249;28;20594;-65
2022/01/19 02:59:17;;;;;;;14.13;11.50;;;-0.30;99.90;;;0.30;92.70;99316.00;5183334;28;20240;-66
2022/01/19 03:10:23;;;;;;;11.47;10.37;;;-0.30;99.90;;;0.30;92.56;99289.97;5189622;28;20221;-63
2022/01/19 03:12:56;;;;;;;13.10;11.67;;;-0.30;99.90;;;0.30;93.10;99293.38;5187458;28;20231;-64
2022/01/19 03:15:30;;;;;;;12.00;10.77;;;-0.40;99.90;;;0.30;93.36;99288.34;5186527;28;20232;-64
2022/01/19 03:18:03;;;;;;;14.03;11.47;;;-0.40;99.90;;;0.26;93.03;99286.19;5188162;28;20732;-63
2022/01/19 03:20:36;;;;;;;12.57;11.23;;;-0.40;99.90;;;0.27;93.43;99282.97;5189488;28;20233;-64
2022/01/19 03:23:16;;;;;;;13.17;10.97;;;-0.40;99.90;;;0.25;92.72;99278.47;5187992;28;20226;-65
2022/01/19 03:25:54;;;;;;;11.20;10.10;;;-0.40;99.90;;;0.26;93.00;99281.16;5188384;28;20268;-64
2022/01/19 03:28:27;;;;;;;11.87;10.70;;;-0.40;99.90;;;0.19;92.27;99274.50;5189760;28;20224;-64
2022/01/19 03:31:00;;;;;;;12.73;11.43;;;-0.50;99.90;;;0.15;91.85;99267.31;5187444;28;20226;-64
2022/01/19 03:33:35;;;;;;;11.60;10.40;;;-0.50;99.90;;;-0.02;92.98;99267.81;5186316;28;20220;-64
2022/01/19 03:36:08;;;;;;;12.17;10.93;;;-0.60;99.90;;;-0.06;92.85;99260.63;5186745;28;20231;-63
2022/01/19 03:38:41;;;;;;;12.17;11.07;;;-0.70;99.90;;;-0.04;93.14;99256.66;5188328;28;20223;-64
2022/01/19 03:41:16;;;;;;;12.87;11.67;;;-0.70;99.90;;;-0.08;93.12;99236.91;5187585;28;20222;-63
2022/01/19 03:43:49;;;;;;;13.67;12.33;;;-0.70;99.90;;;-0.13;92.88;99239.59;5188679;28;20258;-64
2022/01/19 03:46:32;;;;;;;12.63;10.80;;;-0.80;99.90;;;-0.21;93.67;99237.75;5187197;28;20693;-63
2022/01/19 03:49:12;;;;;;;14.30;11.30;;;-0.80;99.90;;;-0.23;93.87;99227.50;5187153;28;20256;-63
2022/01/19 03:51:45;;;;;;;14.03;11.87;;;-0.90;99.90;;;-0.24;93.76;99215.69;5188139;28;20228;-64
2022/01/19 03:54:18;;;;;;;13.97;11.47;;;-0.90;99.90;;;-0.05;93.07;99213.78;5187952;28;20226;-64
2022/01/19 03:56:53;;;;;;;13.37;11.17;;;-0.80;99.90;;;-0.17;92.97;99197.22;5188279;28;20241;-63
2022/01/19 03:59:27;;;;;;;13.50;11.40;;;-0.80;99.90;;;-0.36;93.64;99195.00;5188720;28;20228;-63
2022/01/19 04:02:01;;;;;;;13.23;11.33;;;-1.00;99.90;;;-0.41;94.71;99193.56;5189194;28;20238;-63
2022/01/19 04:04:40;;;;;;;17.37;11.90;;;-1.00;99.90;;;-0.44;94.49;99194.81;5188428;28;20219;-64
2022/01/19 04:07:33;;;;;;;13.93;11.23;;;-1.00;99.90;;;-0.38;94.54;99185.50;5187181;28;20231;-64
2022/01/19 04:10:06;;;;;;;15.20;12.30;;;-1.00;99.90;;;-0.34;94.73;99191.09;5189236;28;20641;-63
2022/01/19 04:12:48;;;;;;;14.57;12.83;;;-1.10;99.90;;;-0.46;95.56;99188.00;5188276;28;20583;-64
2022/01/19 04:15:21;;;;;;;17.10;13.33;;;-1.00;99.90;;;-0.50;96.52;99174.88;5187803;28;20658;-64
2022/01/19 04:17:54;;;;;;;15.20;13.17;;;-1.00;99.90;;;-0.47;96.19;99167.72;5188495;28;20227;-64
2022/01/19 04:20:27;;;;;;;14.40;12.83;;;-1.10;99.90;;;-0.48;95.77;99170.94;5188059;28;20714;-64
2022/01/19 04:23:00;;;;;;;16.20;13.43;;;-1.00;99.90;;;-0.50;96.63;99174.88;5188251;28;20730;-64
2022/01/19 04:25:33;;;;;;;14.30;12.80;;;-1.10;99.90;;;-0.47;96.24;99161.06;5188503;28;20318;-63
2022/01/19 04:28:08;;;;;;;15.10;12.67;;;-1.00;99.90;;;-0.40;96.13;99166.81;5188147;28;20239;-64
2022/01/19 04:30:41;;;;;;;16.20;12.80;;;-1.00;99.90;;;-0.38;96.31;99162.91;5187452;28;20225;-64
2022/01/19 04:33:18;;;;;;;15.60;13.80;;;-1.00;99.90;;;-0.40;95.37;99154.28;5189705;28;20657;-64
2022/01/19 04:35:54;;;;;;;19.37;12.90;;;-1.00;99.90;;;-0.39;96.37;99153.56;5187400;28;20227;-64
2022/01/19 04:44:27;;;;;;;16.90;13.73;;;-0.80;99.90;;;-0.33;96.24;99126.69;5169586;28;20224;-63
2022/01/19 04:47:41;;;;;;;16.67;13.33;;;-0.90;99.90;;;-0.33;96.21;99114.13;5186206;28;20654;-61
2022/01/19 05:01:42;;;;;;;16.00;13.00;;;-1.00;99.90;;;-0.37;96.33;99142.06;5180327;28;20232;-62
2022/01/19 05:04:28;;;;;;;17.10;13.40;;;-0.90;99.90;;;-0.35;96.41;99144.06;5182434;28;20223;-62
2022/01/19 05:07:14;;;;;;;13.97;12.37;;;-0.90;99.90;;;-0.32;95.63;99125.94;5181968;28;20221;-62
2022/01/19 05:10:02;;;;;;;15.30;13.77;;;-0.90;99.90;;;-0.33;95.55;99126.69;5179060;28;20227;-62
2022/01/19 05:15:25;;;;;;;18.50;13.63;;;-0.90;99.90;;;-0.34;95.81;99105.69;5185190;28;20221;-62
2022/01/19 05:18:00;;;;;;;14.90;13.40;;;-0.90;99.90;;;-0.31;94.39;99103.53;5187501;28;20231;-61
2022/01/19 05:20:33;;;;;;;14.23;12.73;;;-1.00;99.90;;;-0.33;95.02;99109.09;5184780;28;20230;-62
2022/01/19 05:23:06;;;;;;;17.47;13.40;;;-0.90;99.90;;;-0.28;95.28;99111.44;5186351;28;20218;-62
2022/01/19 05:25:40;;;;;;;18.40;14.00;;;-0.90;99.90;;;-0.25;95.16;99113.41;5183785;28;20706;-62
2022/01/19 05:28:13;;;;;;;15.90;13.33;;;-0.90;99.90;;;-0.25;95.15;99114.31;5181537;28;20233;-60
2022/01/19 05:30:46;;;;;;;17.47;13.90;;;-0.90;99.90;;;-0.26;94.99;99111.59;5181769;28;20221;-62
2022/01/19 05:33:21;;;;;;;17.93;14.50;;;-0.90;99.90;;;-0.21;94.85;99113.06;5184756;28;20232;-60
2022/01/19 05:35:54;;;;;;;16.03;13.70;;;-0.80;99.90;;;-0.11;95.55;99099.97;5185489;28;20595;-62
2022/01/19 05:38:27;;;;;;;14.97;13.57;;;-0.70;99.90;;;-0.03;95.06;99100.16;5182439;28;20223;-63
2022/01/19 05:41:00;;;;;;;14.67;13.03;;;-0.70;99.90;;;-0.08;95.19;99101.22;5183301;28;20226;-66
2022/01/19 05:43:33;;;;;;;16.50;14.17;;;-0.70;99.90;;;-0.07;95.39;99089.56;5186066;28;20227;-60
2022/01/19 05:46:07;;;;;;;16.73;13.80;;;-0.60;99.90;;;-0.04;95.45;99088.28;5185808;28;20230;-59
2022/01/19 05:48:42;;;;;;;17.27;13.23;;;-0.60;99.90;;;0.04;95.04;99091.72;5185032;28;20569;-63
2022/01/19 05:51:15;;;;;;;15.63;13.97;;;-0.50;99.90;;;0.24;94.31;99090.66;5185127;28;20218;-62
2022/01/19 05:53:49;;;;;;;15.40;12.63;;;-0.50;99.90;;;0.09;94.34;99084.72;5182788;28;20220;-61
2022/01/19 05:56:22;;;;;;;15.60;13.00;;;-0.50;99.90;;;0.15;94.50;99081.31;5183171;28;21857;-61
2022/01/19 05:58:55;;;;;;;15.77;14.10;;;-0.50;99.90;;;0.24;94.55;99080.59;5184976;28;20218;-62
2022/01/19 06:01:28;;;;;;;15.87;13.07;;;-0.40;99.90;;;0.37;94.05;99079.69;5184609;28;20236;-61
2022/01/19 06:04:03;;;;;;;16.67;14.97;;;-0.30;99.90;;;0.39;94.21;99078.22;5185759;28;20287;-61
2022/01/19 06:06:36;;;;;;;17.43;14.23;;;-0.30;99.90;;;0.44;94.73;99077.13;5186138;28;20240;-61
2022/01/19 06:09:21;;;;;;;16.17;14.37;;;-0.30;99.90;;;0.48;93.94;99067.44;5185396;28;20601;-62
2022/01/19 06:11:54;;;;;;;18.97;15.10;;;-0.20;99.90;;;0.50;93.47;99061.84;5178714;28;20228;-63
2022/01/19 06:14:27;;;;;;;15.87;14.20;;;-0.30;99.90;;;0.57;93.24;99053.38;5182632;28;20305;-61
2022/01/19 06:17:01;;;;;;;15.10;13.50;;;-0.20;99.90;;;0.53;93.47;99057.16;5175881;28;20220;-59
2022/01/19 06:19:35;;;;;;;16.83;13.53;;;-0.20;99.90;;;0.44;93.92;99052.00;5180750;28;20225;-58
2022/01/19 06:22:08;;;;;;;16.37;14.63;;;-0.20;99.90;;;0.53;93.89;99039.56;5183674;28;20235;-59
2022/01/19 06:24:42;;;;;;;15.57;13.63;;;-0.10;99.90;;;0.59;94.21;99042.78;5183508;28;20598;-59
2022/01/19 06:27:15;;;;;;;14.63;13.17;;;0.00;99.90;;;0.73;93.64;99040.94;5182966;28;20222;-59
2022/01/19 06:29:48;;;;;;;14.60;12.67;;;0.00;99.90;;;0.73;93.75;99044.34;5183061;28;20234;-59
2022/01/19 06:32:21;;;;;;;12.77;11.47;;;0.00;99.90;;;0.76;93.81;99042.19;5184637;28;20234;-60
2022/01/19 06:34:56;;;;;;;14.87;13.37;;;0.00;99.90;;;0.76;93.60;99044.69;5182879;28;20228;-60
2022/01/19 06:37:29;;;;;;;14.60;13.10;;;0.10;99.90;;;0.83;93.34;99037.16;5184791;28;20674;-61
2022/01/19 06:40:03;;;;;;;14.57;12.13;;;0.10;99.90;;;0.93;93.10;99040.69;5185406;28;20570;-59
2022/01/19 06:42:41;;;;;;;14.73;13.23;;;0.10;99.90;;;0.96;93.26;99030.97;5184015;28;20286;-62
2022/01/19 06:45:15;;;;;;;15.87;13.20;;;0.10;99.90;;;0.79;93.48;99032.47;5181711;28;20220;-63
2022/01/19 06:47:48;;;;;;;14.90;12.37;;;0.10;99.90;;;0.78;93.41;99033.22;5183589;28;20224;-59
2022/01/19 06:50:25;;;;;;;17.53;14.27;;;0.00;99.90;;;0.77;93.63;99038.03;5184950;28;20703;-59
2022/01/19 06:52:58;;;;;;;18.07;14.60;;;0.00;99.90;;;0.79;92.99;99042.53;5184840;28;20343;-62
2022/01/19 06:55:31;;;;;;;16.33;14.07;;;0.00;99.90;;;0.72;92.67;99036.66;5185200;28;20226;-60
2022/01/19 06:58:04;;;;;;;18.47;15.37;;;-0.10;99.90;;;0.77;92.49;99038.94;5180299;28;20698;-61
2022/01/19 07:00:37;;;;;;;17.83;14.73;;;-0.10;99.90;;;0.70;92.85;99033.06;5181833;28;20221;-59
2022/01/19 07:03:10;;;;;;;18.73;14.50;;;-0.10;99.90;;;0.70;93.14;99031.44;5183679;28;20269;-61
2022/01/19 07:05:45;;;;;;;15.77;14.17;;;0.00;99.90;;;0.64;93.78;99025.72;5183980;28;20237;-60
2022/01/19 07:08:18;;;;;;;18.70;14.90;;;0.00;99.90;;;0.71;93.91;99033.22;5184577;28;20296;-61
2022/01/19 07:10:51;;;;;;;18.20;15.90;;;0.10;99.90;;;0.73;94.03;99036.81;5180458;28;20230;-62
2022/01/19 07:13:24;;;;;;;22.37;16.77;;;0.10;99.90;;;0.76;94.30;99037.16;5187115;28;20466;-60
2022/01/19 07:15:57;;;;;;;18.87;16.87;;;0.10;99.90;;;0.81;94.10;99033.53;5182298;28;20226;-62
2022/01/19 07:18:30;;;;;;;20.17;14.93;;;0.20;99.90;;;0.93;94.04;99035.66;5185069;28;20797;-59
2022/01/19 07:21:04;;;;;;;16.27;13.53;;;0.20;99.90;;;0.90;92.49;99042.13;5182482;28;20753;-62
2022/01/19 07:23:37;;;;;;;16.73;14.20;;;0.10;99.90;;;0.88;93.65;99038.53;5184000;28;20220;-63
2022/01/19 07:26:10;;;;;;;14.57;13.17;;;0.20;99.90;;;0.96;93.73;99046.06;5183486;28;20225;-59
2022/01/19 07:28:43;;;;;;;15.10;13.43;;;0.20;99.90;;;1.03;92.71;99038.47;5184349;28;20613;-64
2022/01/19 07:31:17;;;;;;;15.40;13.77;;;0.20;99.90;;;1.06;93.05;99044.78;5185531;28;20265;-64
2022/01/19 07:33:50;;;;;;;13.97;12.50;;;0.30;99.90;;;1.16;92.51;99033.22;5183796;28;20237;-61
2022/01/19 07:36:25;;;;;;;15.77;14.03;;;0.30;99.90;;;1.15;92.37;99031.44;5183496;28;20313;-60
2022/01/19 07:38:58;;;;;;;16.53;13.30;;;0.30;99.90;;;1.02;92.63;99029.13;5183678;28;20222;-57
2022/01/19 07:41:31;;;;;;;15.43;13.80;;;0.30;99.90;;;1.04;93.24;99025.19;5182858;28;20223;-62
2022/01/19 07:44:05;;;;;;;17.67;13.83;;;0.30;99.90;;;1.12;92.20;99020.28;5181990;28;20233;-61
2022/01/19 07:46:38;;;;;;;20.03;14.33;;;0.30;99.90;;;1.06;92.30;99032.19;5180709;28;20304;-59
2022/01/19 07:49:11;;;;;;;15.47;13.87;;;0.30;99.90;;;1.08;93.01;99033.22;5183460;28;20690;-64
2022/01/19 07:51:45;;;;;;;587.03;326.03;;;0.30;99.90;;;1.21;92.41;99019.53;5182046;28;20704;-59
2022/01/19 07:54:19;;;;;;;1999.90;865.80;;;0.30;99.90;;;1.18;92.71;99020.06;5183395;28;20224;-61
2022/01/19 07:56:52;;;;;;;1057.80;512.37;;;0.30;99.90;;;1.22;92.46;99018.78;5181338;28;20226;-59
2022/01/19 07:59:25;;;;;;;410.63;163.50;;;0.30;99.90;;;1.28;92.11;99012.78;5179230;28;20217;-61
2022/01/19 08:01:59;;;;;;;61.57;31.87;;;0.40;99.90;;;1.35;92.28;99006.84;5180109;28;20224;-60
2022/01/19 08:04:32;;;;;;;40.70;25.13;;;0.40;99.90;;;1.31;91.54;99008.09;5183523;28;20231;-59
2022/01/19 08:07:07;;;;;;;27.80;19.63;;;0.50;99.90;;;1.35;91.72;98999.28;5180982;28;20254;-59
2022/01/19 08:09:41;;;;;;;22.87;17.60;;;0.50;99.90;;;1.36;92.55;98998.56;5186851;28;20711;-62
2022/01/19 08:12:14;;;;;;;20.20;16.67;;;0.50;99.90;;;1.36;92.55;99006.09;5183997;28;20705;-58
2022/01/19 08:14:49;;;;;;;20.80;17.30;;;0.50;99.90;;;1.42;92.16;98996.69;5186413;28;20721;-61
2022/01/19 08:17:22;;;;;;;22.37;17.23;;;0.60;99.90;;;1.46;92.08;98998.84;5185365;28;20587;-59
2022/01/19 08:19:56;;;;;;;21.73;19.10;;;0.60;99.90;;;1.58;92.37;98989.22;5187871;28;20230;-62
2022/01/19 08:22:30;;;;;;;20.00;17.60;;;0.80;99.90;;;1.73;92.43;98995.94;5187538;28;20593;-63
2022/01/19 08:25:05;;;;;;;23.20;19.20;;;1.00;99.90;;;1.87;91.95;98989.88;5187096;28;20313;-62
2022/01/19 08:27:38;;;;;;;62.17;35.40;;;1.20;99.90;;;1.98;92.08;98986.00;5179767;28;20216;-61
2022/01/19 08:30:13;;;;;;;21.87;16.30;;;1.40;99.90;;;2.33;89.58;98977.16;5180885;28;20233;-61
2022/01/19 08:32:46;;;;;;;21.80;16.03;;;1.40;99.90;;;2.46;88.48;98981.88;5184288;28;20683;-61
2022/01/19 08:35:20;;;;;;;21.73;16.57;;;1.60;99.90;;;2.55;88.86;98974.38;5185932;28;20225;-61
2022/01/19 08:37:54;;;;;;;17.37;15.47;;;1.60;99.90;;;2.80;87.34;98970.28;5185116;28;20226;-58
2022/01/19 08:40:29;;;;;;;17.57;15.00;;;1.80;99.90;;;2.74;87.10;98965.50;5186629;28;20727;-61
2022/01/19 08:43:02;;;;;;;18.70;13.90;;;1.90;99.90;;;2.81;86.61;98962.00;5181621;28;20224;-60
2022/01/19 08:45:36;;;;;;;16.90;13.60;;;2.10;99.90;;;2.85;86.25;98962.47;5185591;28;20225;-60
2022/01/19 08:48:09;;;;;;;22.40;18.57;;;2.20;99.90;;;2.98;86.32;98966.28;5187205;28;20229;-63
2022/01/19 08:50:42;;;;;;;30.80;24.37;;;2.30;99.90;;;3.10;86.12;98963.41;5186775;28;20229;-60
2022/01/19 08:53:17;;;;;;;21.87;18.23;;;2.40;99.90;;;3.20;85.46;98969.38;5187790;28;20667;-61
2022/01/19 08:55:51;;;;;;;20.43;17.00;;;2.50;99.90;;;3.24;84.92;98969.00;5176135;28;20689;-60
2022/01/19 08:58:24;;;;;;;21.63;18.60;;;2.50;99.90;;;3.35;84.66;98965.94;5185550;28;20221;-59
2022/01/19 09:00:57;;;;;;;25.60;20.00;;;2.70;99.90;;;3.55;84.20;98966.34;5184850;28;20234;-60
2022/01/19 09:03:31;;;;;;;22.47;20.03;;;2.90;99.90;;;3.74;83.46;98958.97;5183438;28;20596;-58
2022/01/19 09:06:05;;;;;;;21.33;18.43;;;3.00;99.90;;;3.80;82.16;98961.22;5186406;28;20244;-59
2022/01/19 09:08:39;;;;;;;23.17;19.10;;;3.10;99.90;;;3.89;81.69;98972.25;5186664;28;20219;-58
2022/01/19 09:11:12;;;;;;;22.27;18.33;;;3.30;99.90;;;3.97;80.75;98973.03;5186788;28;20720;-57
2022/01/19 09:13:46;;;;;;;19.73;17.30;;;3.40;99.90;;;4.02;80.25;98966.81;5186293;28;20230;-60
2022/01/19 09:16:19;;;;;;;20.17;17.33;;;3.50;99.90;;;3.98;80.28;98970.66;5184927;28;20232;-59
2022/01/19 09:18:52;;;;;;;20.30;16.27;;;3.40;99.90;;;4.15;80.18;98974.88;5183491;28;20690;-58
2022/01/19 09:21:26;;;;;;;20.60;18.03;;;3.50;99.90;;;4.38;80.06;98961.97;5185409;28;20210;-60
2022/01/19 09:24:00;;;;;;;19.47;16.83;;;3.70;99.90;;;4.41;79.38;98968.97;5184907;28;20226;-56
2022/01/19 09:26:33;;;;;;;19.73;17.63;;;3.70;99.90;;;4.50;79.11;98967.34;5185213;28;20223;-64
2022/01/19 09:29:07;;;;;;;22.17;17.50;;;3.80;99.90;;;4.56;78.74;98967.06;5185067;28;20221;-60
2022/01/19 09:31:43;;;;;;;19.00;17.00;;;3.80;99.90;;;4.54;77.85;98961.81;5184134;28;20309;-61
2022/01/19 09:34:20;;;;;;;19.90;17.73;;;3.90;99.90;;;4.73;75.99;98965.41;5184705;28;20218;-63
2022/01/19 09:36:53;;;;;;;18.87;16.63;;;4.00;99.90;;;4.68;75.15;98965.72;5185371;28;20231;-60
2022/01/19 09:39:28;;;;;;;18.47;16.53;;;4.10;99.90;;;4.82;75.30;98962.88;5183426;28;20225;-62
2022/01/19 09:42:02;;;;;;;18.70;16.67;;;4.10;99.90;;;5.02;74.49;98967.34;5186217;28;20244;-60
2022/01/19 09:44:35;;;;;;;17.60;15.77;;;4.30;99.90;;;5.13;73.40;98954.06;5183439;28;20326;-62
2022/01/19 09:47:08;;;;;;;17.47;15.67;;;4.40;99.90;;;5.13;73.15;98953.19;5183739;28;20230;-59
2022/01/19 09:49:42;;;;;;;19.80;15.80;;;4.60;99.90;;;5.24;71.63;98962.69;5185789;28;20226;-59
2022/01/19 09:52:15;;;;;;;18.77;16.77;;;4.60;99.90;;;5.34;70.79;98950.13;5185079;28;20590;-61
2022/01/19 09:54:50;;;;;;;18.63;15.50;;;4.50;99.90;;;5.39;70.30;98943.88;5182052;28;20223;-58
2022/01/19 09:57:23;;;;;;;18.10;16.23;;;4.60;99.90;;;5.51;71.47;98945.78;5180134;28;20737;-60
2022/01/19 09:59:57;;;;;;;17.47;15.23;;;4.70;99.90;;;5.51;70.55;98938.16;5184997;28;20772;-59
2022/01/19 10:02:30;;;;;;;16.10;14.40;;;4.80;99.90;;;5.55;70.31;98936.06;5182200;28;20595;-63
2022/01/19 10:05:07;;;;;;;15.67;14.13;;;4.70;99.90;;;5.60;69.41;98933.94;5184596;28;20238;-59
2022/01/19 10:07:40;;;;;;;15.57;13.67;;;4.80;99.90;;;5.53;69.14;98921.47;5184411;28;20702;-59
2022/01/19 10:10:16;;;;;;;16.50;14.33;;;4.90;99.90;;;5.64;68.94;98915.75;5184591;28;20222;-61
2022/01/19 10:18:30;;;;;;;16.40;14.77;;;4.80;99.90;;;5.77;68.35;98900.91;5188476;28;20226;-58
2022/01/19 10:21:09;;;;;;;16.37;14.67;;;4.90;99.90;;;5.76;68.63;98896.59;5184893;28;20215;-63
2022/01/19 10:23:46;;;;;;;16.73;15.03;;;5.00;99.90;;;5.78;68.82;98892.56;5183785;28;20272;-67
2022/01/19 10:26:27;;;;;;;14.80;13.30;;;5.10;99.90;;;5.85;69.05;98887.28;5181946;28;20749;-63
2022/01/19 10:29:07;;;;;;;16.27;14.40;;;5.10;99.90;;;5.95;68.63;98872.94;5170737;28;20276;-59
2022/01/19 10:31:41;;;;;;;15.13;13.53;;;5.20;99.90;;;5.94;67.39;98861.88;5184090;28;20229;-61
2022/01/19 10:34:18;;;;;;;16.27;14.70;;;5.20;99.90;;;5.91;68.39;98861.56;5193475;28;20689;-60
2022/01/19 10:36:56;;;;;;;17.67;14.73;;;5.20;99.90;;;5.95;67.24;98860.25;5183098;28;20228;-61
2022/01/19 10:39:41;;;;;;;14.80;13.37;;;5.20;99.90;;;5.86;68.53;98850.09;5178974;28;20219;-60
2022/01/19 10:42:19;;;;;;;15.20;13.47;;;5.20;99.90;;;5.96;68.54;98845.16;5181499;28;20225;-61
2022/01/19 10:44:55;;;;;;;14.57;13.07;;;5.30;99.90;;;6.04;68.54;98840.78;5176635;28;20224;-59
2022/01/19 10:47:48;;;;;;;15.60;13.23;;;5.40;99.90;;;6.26;68.04;98831.78;5183463;28;20716;-59
2022/01/19 10:50:25;;;;;;;15.30;13.63;;;5.40;99.90;;;6.29;67.88;98815.94;5184008;28;20229;-59
2022/01/19 10:53:03;;;;;;;13.63;12.27;;;5.50;99.90;;;6.28;67.93;98816.72;5183363;28;20292;-61
2022/01/19 10:55:44;;;;;;;13.80;12.43;;;5.60;99.90;;;6.44;67.07;98822.41;5184180;28;20222;-60
2022/01/19 10:58:18;;;;;;;13.77;12.40;;;5.60;99.90;;;6.52;66.33;98821.44;5183498;28;20694;-62
2022/01/19 11:00:54;;;;;;;15.13;12.50;;;5.60;99.90;;;6.54;66.42;98824.97;5184069;28;20230;-59
2022/01/19 11:03:30;;;;;;;13.10;11.80;;;5.80;99.90;;;6.61;66.13;98811.19;5183934;28;20623;-59
2022/01/19 11:06:03;;;;;;;14.97;12.70;;;5.80;99.90;;;6.62;64.88;98807.00;5178378;28;20638;-56
2022/01/19 11:08:40;;;;;;;11.93;10.83;;;5.90;99.90;;;6.75;64.04;98805.66;5182979;28;20226;-62
2022/01/19 11:11:13;;;;;;;13.10;11.90;;;5.80;99.90;;;6.85;65.28;98806.44;5182749;28;20373;-63
2022/01/19 11:13:55;;;;;;;12.33;11.20;;;5.90;99.90;;;6.83;63.88;98797.78;5182465;28;20720;-64
2022/01/19 11:16:31;;;;;;;13.10;11.90;;;6.00;99.90;;;6.88;64.24;98802.53;5181599;28;20284;-60
2022/01/19 11:19:04;;;;;;;13.63;11.43;;;5.90;99.90;;;6.92;64.74;98793.50;5180846;28;20313;-63
2022/01/19 11:21:51;;;;;;;12.10;10.93;;;6.00;99.90;;;6.91;64.25;98784.09;5181715;28;20701;-62
2022/01/19 11:24:34;;;;;;;13.10;11.70;;;6.00;99.90;;;6.77;64.86;98778.72;5181012;28;20221;-64
2022/01/19 11:27:08;;;;;;;12.50;11.30;;;6.10;99.90;;;6.76;65.53;98769.31;5176532;28;20224;-61
2022/01/19 11:29:43;;;;;;;13.53;12.23;;;6.10;99.90;;;6.80;64.40;98767.03;5177055;28;20240;-63
2022/01/19 11:32:20;;;;;;;12.50;11.30;;;6.00;99.90;;;6.87;64.27;98764.28;5179769;28;20580;-62
2022/01/19 11:34:54;;;;;;;13.77;12.47;;;6.00;99.90;;;6.87;63.05;98749.03;5174204;28;20222;-63
2022/01/19 11:37:36;;;;;;;13.63;11.57;;;6.00;99.90;;;6.91;63.11;98749.41;5181843;28;20309;-60
2022/01/19 11:40:14;;;;;;;12.97;11.77;;;5.90;99.90;;;6.91;63.18;98738.38;5182342;28;20575;-62
2022/01/19 11:42:47;;;;;;;12.43;11.23;;;6.00;99.90;;;6.94;63.04;98733.53;5174866;28;20273;-62
2022/01/19 11:48:21;;;;;;;12.07;10.77;;;6.10;99.90;;;6.95;62.46;98720.06;5298401;27;20613;-66
2022/01/19 11:51:25;;;;;;;12.20;11.10;;;6.00;99.90;;;6.88;63.16;98725.41;5302929;27;20224;-62
2022/01/19 11:54:07;;;;;;;11.40;10.47;;;6.10;99.90;;;6.89;63.42;98722.09;5290292;27;20215;-62
2022/01/19 11:57:08;;;;;;;12.47;11.20;;;6.00;99.90;;;6.91;63.74;98720.56;5304129;27;21840;-61
2022/01/19 12:00:10;;;;;;;12.10;11.00;;;6.10;99.90;;;6.95;64.07;98714.97;5304317;27;20222;-62
2022/01/19 12:02:47;;;;;;;12.67;10.97;;;6.20;99.90;;;7.10;61.23;98710.34;5288858;27;20681;-63